VEGY

Details ICAO VEGY (GAY)
Name GAYA
Region India
Timezone Asia/Kolkata (UTC+5.5)
Plans Departing 13
Arriving 12
Stats Elevation 380 ft / 116 m (AMSL)
Location 24.744308° 84.951175°
Runways 1
Magnetic Variation 0.153° E
Sunrise 2017-12-15 00:58:17 UTC / 2017-12-15 06:28:17 Local
Sunset 2017-12-15 11:34:59 UTC / 2017-12-15 17:04:59 Local
Advertisement - Login to hide

Runways

ID Width Length Bearing (true) Bearing (mag) Surface Threshold Offset Overrun Length
10 148 ft / 45 m 7,478 ft / 2,279 m 103.80° 103.65° Asphalt 0 ft / 0 m 0 ft / 0 m
28 148 ft / 45 m 7,478 ft / 2,279 m 283.81° 283.66° Asphalt 245 ft / 75 m 0 ft / 0 m

Map

Weather


0- 5 10 15 20 25 30 35+ Temperature / ° C

Clouds and Precipitation
Forecast for 2017-12-15 06:00 UTC. Updated an hour ago

Ground ~20,000 ft ~40,000 ft Winds

METAR

VEGY 150400Z 23006KT 1800 HZ NSC 21/12 Q1018

TAF

Not found

Frequencies

Tower 123.50 MHz TWR
Warning: Do not use this data for real-world aviation or navigation. No guarantee of current accuracy is given.